sensor_id;sensor_type;location;lat;lon;timestamp;P1;durP1;ratioP1;P2;durP2;ratioP2
75236;SDS011;63826;48.100;-1.670;2023-02-12T00:01:44;5.77;;;2.77;;
75236;SDS011;63826;48.100;-1.670;2023-02-12T00:04:10;6.07;;;2.50;;
75236;SDS011;63826;48.100;-1.670;2023-02-12T00:06:37;5.32;;;2.28;;
75236;SDS011;63826;48.100;-1.670;2023-02-12T00:09:04;5.50;;;2.60;;
75236;SDS011;63826;48.100;-1.670;2023-02-12T00:11:30;5.55;;;2.50;;
75236;SDS011;63826;48.100;-1.670;2023-02-12T00:13:56;6.17;;;2.47;;
75236;SDS011;63826;48.100;-1.670;2023-02-12T00:16:24;5.18;;;2.50;;
75236;SDS011;63826;48.100;-1.670;2023-02-12T00:18:51;5.70;;;2.70;;
75236;SDS011;63826;48.100;-1.670;2023-02-12T00:21:17;5.32;;;2.80;;
75236;SDS011;63826;48.100;-1.670;2023-02-12T00:23:43;5.60;;;2.42;;
75236;SDS011;63826;48.100;-1.670;2023-02-12T00:26:13;5.73;;;2.53;;
75236;SDS011;63826;48.100;-1.670;2023-02-12T00:28:39;5.68;;;2.70;;
75236;SDS011;63826;48.100;-1.670;2023-02-12T00:31:10;6.70;;;2.80;;
75236;SDS011;63826;48.100;-1.670;2023-02-12T00:33:36;5.32;;;2.60;;
75236;SDS011;63826;48.100;-1.670;2023-02-12T00:36:02;5.75;;;2.63;;
75236;SDS011;63826;48.100;-1.670;2023-02-12T00:38:28;5.53;;;2.50;;
75236;SDS011;63826;48.100;-1.670;2023-02-12T00:40:54;4.88;;;2.53;;
75236;SDS011;63826;48.100;-1.670;2023-02-12T00:43:20;5.43;;;2.47;;
75236;SDS011;63826;48.100;-1.670;2023-02-12T00:45:47;5.60;;;2.55;;
75236;SDS011;63826;48.100;-1.670;2023-02-12T00:48:13;4.35;;;2.50;;
75236;SDS011;63826;48.100;-1.670;2023-02-12T00:50:39;5.30;;;2.50;;
75236;SDS011;63826;48.100;-1.670;2023-02-12T00:53:06;5.07;;;2.40;;
75236;SDS011;63826;48.100;-1.670;2023-02-12T00:55:32;4.95;;;2.50;;
75236;SDS011;63826;48.100;-1.670;2023-02-12T00:57:58;5.80;;;2.63;;
75236;SDS011;63826;48.100;-1.670;2023-02-12T01:00:24;4.65;;;2.22;;
75236;SDS011;63826;48.100;-1.670;2023-02-12T01:02:50;5.33;;;2.47;;
75236;SDS011;63826;48.100;-1.670;2023-02-12T01:05:16;5.50;;;2.47;;
75236;SDS011;63826;48.100;-1.670;2023-02-12T01:07:43;3.78;;;2.17;;
75236;SDS011;63826;48.100;-1.670;2023-02-12T01:10:13;6.15;;;2.50;;
75236;SDS011;63826;48.100;-1.670;2023-02-12T01:12:39;6.43;;;2.55;;
75236;SDS011;63826;48.100;-1.670;2023-02-12T01:15:05;5.17;;;2.27;;
75236;SDS011;63826;48.100;-1.670;2023-02-12T01:17:31;4.50;;;2.20;;
75236;SDS011;63826;48.100;-1.670;2023-02-12T01:19:57;5.68;;;2.70;;
75236;SDS011;63826;48.100;-1.670;2023-02-12T01:22:23;5.72;;;2.55;;
75236;SDS011;63826;48.100;-1.670;2023-02-12T01:24:49;4.70;;;2.13;;
75236;SDS011;63826;48.100;-1.670;2023-02-12T01:27:15;5.00;;;2.50;;
75236;SDS011;63826;48.100;-1.670;2023-02-12T01:29:41;6.00;;;2.78;;
75236;SDS011;63826;48.100;-1.670;2023-02-12T01:32:10;5.25;;;2.40;;
75236;SDS011;63826;48.100;-1.670;2023-02-12T01:34:37;5.38;;;2.67;;
75236;SDS011;63826;48.100;-1.670;2023-02-12T01:37:03;5.40;;;2.58;;
75236;SDS011;63826;48.100;-1.670;2023-02-12T01:39:29;5.67;;;2.70;;
75236;SDS011;63826;48.100;-1.670;2023-02-12T01:41:55;5.90;;;2.50;;
75236;SDS011;63826;48.100;-1.670;2023-02-12T01:44:22;4.72;;;2.50;;
75236;SDS011;63826;48.100;-1.670;2023-02-12T01:46:49;7.18;;;2.65;;
75236;SDS011;63826;48.100;-1.670;2023-02-12T01:49:21;5.30;;;2.30;;
75236;SDS011;63826;48.100;-1.670;2023-02-12T01:51:48;5.63;;;2.40;;
75236;SDS011;63826;48.100;-1.670;2023-02-12T01:54:15;5.93;;;2.72;;
75236;SDS011;63826;48.100;-1.670;2023-02-12T01:56:42;5.97;;;2.75;;
75236;SDS011;63826;48.100;-1.670;2023-02-12T01:59:08;5.32;;;2.50;;
75236;SDS011;63826;48.100;-1.670;2023-02-12T02:01:34;6.32;;;2.70;;
75236;SDS011;63826;48.100;-1.670;2023-02-12T02:04:01;5.60;;;2.47;;
75236;SDS011;63826;48.100;-1.670;2023-02-12T02:06:33;5.38;;;2.47;;
75236;SDS011;63826;48.100;-1.670;2023-02-12T02:09:01;6.43;;;2.72;;
75236;SDS011;63826;48.100;-1.670;2023-02-12T02:11:27;4.80;;;2.35;;
75236;SDS011;63826;48.100;-1.670;2023-02-12T02:14:12;5.65;;;2.60;;
75236;SDS011;63826;48.100;-1.670;2023-02-12T02:32:16;5.05;;;2.10;;
75236;SDS011;63826;48.100;-1.670;2023-02-12T02:34:54;5.10;;;2.30;;
75236;SDS011;63826;48.100;-1.670;2023-02-12T02:37:25;5.53;;;2.47;;
75236;SDS011;63826;48.100;-1.670;2023-02-12T02:39:54;6.18;;;2.55;;
75236;SDS011;63826;48.100;-1.670;2023-02-12T02:42:24;5.87;;;2.60;;
75236;SDS011;63826;48.100;-1.670;2023-02-12T02:44:53;5.70;;;2.60;;
75236;SDS011;63826;48.100;-1.670;2023-02-12T02:47:23;6.47;;;2.88;;
75236;SDS011;63826;48.100;-1.670;2023-02-12T02:49:53;5.35;;;2.60;;
75236;SDS011;63826;48.100;-1.670;2023-02-12T02:52:21;6.03;;;2.65;;
75236;SDS011;63826;48.100;-1.670;2023-02-12T02:54:53;5.07;;;2.60;;
75236;SDS011;63826;48.100;-1.670;2023-02-12T02:57:22;6.13;;;2.70;;
75236;SDS011;63826;48.100;-1.670;2023-02-12T02:59:52;5.72;;;2.58;;
75236;SDS011;63826;48.100;-1.670;2023-02-12T03:02:20;5.53;;;2.47;;
75236;SDS011;63826;48.100;-1.670;2023-02-12T03:04:52;6.22;;;2.95;;
75236;SDS011;63826;48.100;-1.670;2023-02-12T03:07:27;5.23;;;2.47;;
75236;SDS011;63826;48.100;-1.670;2023-02-12T03:10:01;5.63;;;2.53;;
75236;SDS011;63826;48.100;-1.670;2023-02-12T03:12:30;6.20;;;2.92;;
75236;SDS011;63826;48.100;-1.670;2023-02-12T03:15:00;6.30;;;3.00;;
75236;SDS011;63826;48.100;-1.670;2023-02-12T03:17:31;5.75;;;2.67;;
75236;SDS011;63826;48.100;-1.670;2023-02-12T03:20:22;5.80;;;2.80;;
75236;SDS011;63826;48.100;-1.670;2023-02-12T03:23:09;6.70;;;2.70;;
75236;SDS011;63826;48.100;-1.670;2023-02-12T03:25:33;6.63;;;2.90;;
75236;SDS011;63826;48.100;-1.670;2023-02-12T03:28:05;5.68;;;2.70;;
75236;SDS011;63826;48.100;-1.670;2023-02-12T03:36:00;5.90;;;3.13;;
75236;SDS011;63826;48.100;-1.670;2023-02-12T03:38:47;5.93;;;3.20;;
75236;SDS011;63826;48.100;-1.670;2023-02-12T03:41:19;5.88;;;2.85;;
75236;SDS011;63826;48.100;-1.670;2023-02-12T03:43:54;6.32;;;3.03;;
75236;SDS011;63826;48.100;-1.670;2023-02-12T03:46:26;6.30;;;3.30;;
75236;SDS011;63826;48.100;-1.670;2023-02-12T03:49:09;6.18;;;3.10;;
75236;SDS011;63826;48.100;-1.670;2023-02-12T03:51:40;6.97;;;3.38;;
75236;SDS011;63826;48.100;-1.670;2023-02-12T03:54:07;6.20;;;3.08;;
75236;SDS011;63826;48.100;-1.670;2023-02-12T03:56:36;6.07;;;3.17;;
75236;SDS011;63826;48.100;-1.670;2023-02-12T03:59:03;5.73;;;2.93;;
75236;SDS011;63826;48.100;-1.670;2023-02-12T04:01:30;6.30;;;3.28;;
75236;SDS011;63826;48.100;-1.670;2023-02-12T04:03:56;7.93;;;3.90;;
75236;SDS011;63826;48.100;-1.670;2023-02-12T04:06:24;6.65;;;3.50;;
75236;SDS011;63826;48.100;-1.670;2023-02-12T04:08:51;7.65;;;3.65;;
75236;SDS011;63826;48.100;-1.670;2023-02-12T04:11:24;7.00;;;3.40;;
75236;SDS011;63826;48.100;-1.670;2023-02-12T04:19:04;6.18;;;3.20;;
75236;SDS011;63826;48.100;-1.670;2023-02-12T04:24:04;6.20;;;3.37;;
75236;SDS011;63826;48.100;-1.670;2023-02-12T04:29:28;7.10;;;3.75;;
75236;SDS011;63826;48.100;-1.670;2023-02-12T04:31:59;7.50;;;3.70;;
75236;SDS011;63826;48.100;-1.670;2023-02-12T04:37:04;7.20;;;3.67;;
75236;SDS011;63826;48.100;-1.670;2023-02-12T04:39:33;7.90;;;3.70;;
75236;SDS011;63826;48.100;-1.670;2023-02-12T04:42:01;6.72;;;3.53;;
75236;SDS011;63826;48.100;-1.670;2023-02-12T04:44:28;7.32;;;4.05;;
75236;SDS011;63826;48.100;-1.670;2023-02-12T04:46:54;7.10;;;3.50;;
75236;SDS011;63826;48.100;-1.670;2023-02-12T04:49:21;7.17;;;3.97;;
75236;SDS011;63826;48.100;-1.670;2023-02-12T04:51:47;6.68;;;3.50;;
75236;SDS011;63826;48.100;-1.670;2023-02-12T04:54:14;7.32;;;3.80;;
75236;SDS011;63826;48.100;-1.670;2023-02-12T04:56:41;7.18;;;3.90;;
75236;SDS011;63826;48.100;-1.670;2023-02-12T04:59:08;8.02;;;4.10;;
75236;SDS011;63826;48.100;-1.670;2023-02-12T05:01:34;7.70;;;4.00;;
75236;SDS011;63826;48.100;-1.670;2023-02-12T05:04:00;6.85;;;3.75;;
75236;SDS011;63826;48.100;-1.670;2023-02-12T05:06:26;8.05;;;4.38;;
75236;SDS011;63826;48.100;-1.670;2023-02-12T05:08:54;7.80;;;4.13;;
75236;SDS011;63826;48.100;-1.670;2023-02-12T05:11:20;7.82;;;4.40;;
75236;SDS011;63826;48.100;-1.670;2023-02-12T05:13:50;6.90;;;3.63;;
75236;SDS011;63826;48.100;-1.670;2023-02-12T05:16:16;8.00;;;4.18;;
75236;SDS011;63826;48.100;-1.670;2023-02-12T05:18:42;7.53;;;4.05;;
75236;SDS011;63826;48.100;-1.670;2023-02-12T05:21:09;7.18;;;4.10;;
75236;SDS011;63826;48.100;-1.670;2023-02-12T05:23:36;8.13;;;4.30;;
75236;SDS011;63826;48.100;-1.670;2023-02-12T05:26:03;9.50;;;4.40;;
75236;SDS011;63826;48.100;-1.670;2023-02-12T05:28:29;8.32;;;4.60;;
75236;SDS011;63826;48.100;-1.670;2023-02-12T05:31:02;8.00;;;4.30;;
75236;SDS011;63826;48.100;-1.670;2023-02-12T05:33:28;7.82;;;4.28;;
75236;SDS011;63826;48.100;-1.670;2023-02-12T05:35:54;7.63;;;4.35;;
75236;SDS011;63826;48.100;-1.670;2023-02-12T05:38:21;7.90;;;4.20;;
75236;SDS011;63826;48.100;-1.670;2023-02-12T05:40:47;8.40;;;4.63;;
75236;SDS011;63826;48.100;-1.670;2023-02-12T05:43:13;8.20;;;4.38;;
75236;SDS011;63826;48.100;-1.670;2023-02-12T05:45:39;8.45;;;4.43;;
75236;SDS011;63826;48.100;-1.670;2023-02-12T05:48:08;8.15;;;4.30;;
75236;SDS011;63826;48.100;-1.670;2023-02-12T05:50:34;8.57;;;4.17;;
75236;SDS011;63826;48.100;-1.670;2023-02-12T05:53:00;8.57;;;4.60;;
75236;SDS011;63826;48.100;-1.670;2023-02-12T05:55:26;7.82;;;4.43;;
75236;SDS011;63826;48.100;-1.670;2023-02-12T05:57:52;8.65;;;4.40;;
75236;SDS011;63826;48.100;-1.670;2023-02-12T06:00:18;8.05;;;4.43;;
75236;SDS011;63826;48.100;-1.670;2023-02-12T06:02:44;7.67;;;4.33;;
75236;SDS011;63826;48.100;-1.670;2023-02-12T06:05:10;7.60;;;4.25;;
75236;SDS011;63826;48.100;-1.670;2023-02-12T06:07:36;8.18;;;4.47;;
75236;SDS011;63826;48.100;-1.670;2023-02-12T06:10:02;8.05;;;4.15;;
75236;SDS011;63826;48.100;-1.670;2023-02-12T06:12:28;7.40;;;4.30;;
75236;SDS011;63826;48.100;-1.670;2023-02-12T06:14:54;7.37;;;4.23;;
75236;SDS011;63826;48.100;-1.670;2023-02-12T06:17:20;9.48;;;4.20;;
75236;SDS011;63826;48.100;-1.670;2023-02-12T06:19:46;8.02;;;4.25;;
75236;SDS011;63826;48.100;-1.670;2023-02-12T06:22:12;7.88;;;4.53;;
75236;SDS011;63826;48.100;-1.670;2023-02-12T06:24:38;7.82;;;4.32;;
75236;SDS011;63826;48.100;-1.670;2023-02-12T06:27:04;8.57;;;4.73;;
75236;SDS011;63826;48.100;-1.670;2023-02-12T06:29:30;7.63;;;4.28;;
75236;SDS011;63826;48.100;-1.670;2023-02-12T06:31:56;8.95;;;4.90;;
75236;SDS011;63826;48.100;-1.670;2023-02-12T06:34:22;8.40;;;4.68;;
75236;SDS011;63826;48.100;-1.670;2023-02-12T06:36:48;7.47;;;4.50;;
75236;SDS011;63826;48.100;-1.670;2023-02-12T06:39:14;8.07;;;4.37;;
75236;SDS011;63826;48.100;-1.670;2023-02-12T06:41:41;8.02;;;4.45;;
75236;SDS011;63826;48.100;-1.670;2023-02-12T06:44:09;8.60;;;4.65;;
75236;SDS011;63826;48.100;-1.670;2023-02-12T06:46:35;8.93;;;4.85;;
75236;SDS011;63826;48.100;-1.670;2023-02-12T06:49:01;8.45;;;4.85;;
75236;SDS011;63826;48.100;-1.670;2023-02-12T06:51:27;7.93;;;4.33;;
75236;SDS011;63826;48.100;-1.670;2023-02-12T06:53:54;8.02;;;4.60;;
75236;SDS011;63826;48.100;-1.670;2023-02-12T06:56:20;7.70;;;4.57;;
75236;SDS011;63826;48.100;-1.670;2023-02-12T06:58:50;8.23;;;4.47;;
75236;SDS011;63826;48.100;-1.670;2023-02-12T07:01:18;8.18;;;4.43;;
75236;SDS011;63826;48.100;-1.670;2023-02-12T07:03:58;7.70;;;4.37;;
75236;SDS011;63826;48.100;-1.670;2023-02-12T07:06:25;8.45;;;4.88;;
75236;SDS011;63826;48.100;-1.670;2023-02-12T07:08:51;8.65;;;4.25;;
75236;SDS011;63826;48.100;-1.670;2023-02-12T07:11:17;7.03;;;4.20;;
75236;SDS011;63826;48.100;-1.670;2023-02-12T07:13:43;8.02;;;4.60;;
75236;SDS011;63826;48.100;-1.670;2023-02-12T07:16:11;8.23;;;4.43;;
75236;SDS011;63826;48.100;-1.670;2023-02-12T07:18:37;8.73;;;4.45;;
75236;SDS011;63826;48.100;-1.670;2023-02-12T07:21:04;7.70;;;4.25;;
75236;SDS011;63826;48.100;-1.670;2023-02-12T07:23:30;7.68;;;4.30;;
75236;SDS011;63826;48.100;-1.670;2023-02-12T07:25:56;8.00;;;4.40;;
75236;SDS011;63826;48.100;-1.670;2023-02-12T07:28:23;7.30;;;4.40;;
75236;SDS011;63826;48.100;-1.670;2023-02-12T07:30:49;8.05;;;4.43;;
75236;SDS011;63826;48.100;-1.670;2023-02-12T07:33:16;8.02;;;4.35;;
75236;SDS011;63826;48.100;-1.670;2023-02-12T07:35:42;8.82;;;4.82;;
75236;SDS011;63826;48.100;-1.670;2023-02-12T07:38:08;7.60;;;4.20;;
75236;SDS011;63826;48.100;-1.670;2023-02-12T07:40:34;7.10;;;4.13;;
75236;SDS011;63826;48.100;-1.670;2023-02-12T07:43:00;8.07;;;4.10;;
75236;SDS011;63826;48.100;-1.670;2023-02-12T07:45:26;8.70;;;4.70;;
75236;SDS011;63826;48.100;-1.670;2023-02-12T07:47:52;8.55;;;4.30;;
75236;SDS011;63826;48.100;-1.670;2023-02-12T07:50:18;7.35;;;4.20;;
75236;SDS011;63826;48.100;-1.670;2023-02-12T07:52:44;8.47;;;4.30;;
75236;SDS011;63826;48.100;-1.670;2023-02-12T07:55:13;7.32;;;4.30;;
75236;SDS011;63826;48.100;-1.670;2023-02-12T07:57:39;7.95;;;4.30;;
75236;SDS011;63826;48.100;-1.670;2023-02-12T08:00:05;8.32;;;4.32;;
75236;SDS011;63826;48.100;-1.670;2023-02-12T08:02:31;8.10;;;4.38;;
75236;SDS011;63826;48.100;-1.670;2023-02-12T08:04:57;7.40;;;4.10;;
75236;SDS011;63826;48.100;-1.670;2023-02-12T08:07:23;8.13;;;4.25;;
75236;SDS011;63826;48.100;-1.670;2023-02-12T08:09:49;8.15;;;4.70;;
75236;SDS011;63826;48.100;-1.670;2023-02-12T08:12:16;8.70;;;4.47;;
75236;SDS011;63826;48.100;-1.670;2023-02-12T08:14:42;8.02;;;4.15;;
75236;SDS011;63826;48.100;-1.670;2023-02-12T08:17:08;7.33;;;4.17;;
75236;SDS011;63826;48.100;-1.670;2023-02-12T08:19:34;7.63;;;4.10;;
75236;SDS011;63826;48.100;-1.670;2023-02-12T08:22:00;7.25;;;4.18;;
75236;SDS011;63826;48.100;-1.670;2023-02-12T08:24:27;8.40;;;4.22;;
75236;SDS011;63826;48.100;-1.670;2023-02-12T08:26:53;7.65;;;4.30;;
75236;SDS011;63826;48.100;-1.670;2023-02-12T08:29:20;8.03;;;4.77;;
75236;SDS011;63826;48.100;-1.670;2023-02-12T08:31:48;7.85;;;4.30;;
75236;SDS011;63826;48.100;-1.670;2023-02-12T08:36:43;7.57;;;4.40;;
75236;SDS011;63826;48.100;-1.670;2023-02-12T08:39:10;7.95;;;4.38;;
75236;SDS011;63826;48.100;-1.670;2023-02-12T08:41:36;7.53;;;4.30;;
75236;SDS011;63826;48.100;-1.670;2023-02-12T08:44:03;7.70;;;4.13;;
75236;SDS011;63826;48.100;-1.670;2023-02-12T08:46:30;7.50;;;4.05;;
75236;SDS011;63826;48.100;-1.670;2023-02-12T08:48:57;7.88;;;4.15;;
75236;SDS011;63826;48.100;-1.670;2023-02-12T08:51:25;8.05;;;4.45;;
75236;SDS011;63826;48.100;-1.670;2023-02-12T08:53:52;7.97;;;4.00;;
75236;SDS011;63826;48.100;-1.670;2023-02-12T08:56:19;7.90;;;4.47;;
75236;SDS011;63826;48.100;-1.670;2023-02-12T08:58:45;7.93;;;4.20;;
75236;SDS011;63826;48.100;-1.670;2023-02-12T09:01:12;7.63;;;4.10;;
75236;SDS011;63826;48.100;-1.670;2023-02-12T09:03:40;7.30;;;4.18;;
75236;SDS011;63826;48.100;-1.670;2023-02-12T09:06:06;7.47;;;3.80;;
75236;SDS011;63826;48.100;-1.670;2023-02-12T09:08:33;7.97;;;4.22;;
75236;SDS011;63826;48.100;-1.670;2023-02-12T09:11:00;8.05;;;3.90;;
75236;SDS011;63826;48.100;-1.670;2023-02-12T09:13:28;7.07;;;3.47;;
75236;SDS011;63826;48.100;-1.670;2023-02-12T09:15:54;7.57;;;3.58;;
75236;SDS011;63826;48.100;-1.670;2023-02-12T09:18:20;6.63;;;3.40;;
75236;SDS011;63826;48.100;-1.670;2023-02-12T09:20:46;7.65;;;3.67;;
75236;SDS011;63826;48.100;-1.670;2023-02-12T09:23:13;7.95;;;4.28;;
75236;SDS011;63826;48.100;-1.670;2023-02-12T09:25:40;7.15;;;3.85;;
75236;SDS011;63826;48.100;-1.670;2023-02-12T09:28:06;7.18;;;3.60;;
75236;SDS011;63826;48.100;-1.670;2023-02-12T09:30:32;6.50;;;3.53;;
75236;SDS011;63826;48.100;-1.670;2023-02-12T09:32:58;6.68;;;3.42;;
75236;SDS011;63826;48.100;-1.670;2023-02-12T09:35:24;7.35;;;3.70;;
75236;SDS011;63826;48.100;-1.670;2023-02-12T09:37:53;6.55;;;3.28;;
75236;SDS011;63826;48.100;-1.670;2023-02-12T09:40:20;7.40;;;3.90;;
75236;SDS011;63826;48.100;-1.670;2023-02-12T09:45:20;7.07;;;3.38;;
75236;SDS011;63826;48.100;-1.670;2023-02-12T09:47:49;7.18;;;3.97;;
75236;SDS011;63826;48.100;-1.670;2023-02-12T09:52:51;6.60;;;3.10;;
75236;SDS011;63826;48.100;-1.670;2023-02-12T09:55:18;8.03;;;4.00;;
75236;SDS011;63826;48.100;-1.670;2023-02-12T09:57:44;7.57;;;3.60;;
75236;SDS011;63826;48.100;-1.670;2023-02-12T10:00:29;7.47;;;3.80;;
75236;SDS011;63826;48.100;-1.670;2023-02-12T10:02:56;8.63;;;3.47;;
75236;SDS011;63826;48.100;-1.670;2023-02-12T10:05:32;7.22;;;3.30;;
75236;SDS011;63826;48.100;-1.670;2023-02-12T10:13:06;6.93;;;3.40;;
75236;SDS011;63826;48.100;-1.670;2023-02-12T10:21:00;7.28;;;3.30;;
75236;SDS011;63826;48.100;-1.670;2023-02-12T10:23:35;7.50;;;3.65;;
75236;SDS011;63826;48.100;-1.670;2023-02-12T10:26:27;9.18;;;3.00;;
75236;SDS011;63826;48.100;-1.670;2023-02-12T10:28:50;7.53;;;3.40;;
75236;SDS011;63826;48.100;-1.670;2023-02-12T10:31:38;7.30;;;3.25;;
75236;SDS011;63826;48.100;-1.670;2023-02-12T10:34:23;7.03;;;3.13;;
75236;SDS011;63826;48.100;-1.670;2023-02-12T10:36:50;7.35;;;3.67;;
75236;SDS011;63826;48.100;-1.670;2023-02-12T10:39:21;6.30;;;3.22;;
75236;SDS011;63826;48.100;-1.670;2023-02-12T10:44:13;6.17;;;2.97;;
75236;SDS011;63826;48.100;-1.670;2023-02-12T10:46:39;6.82;;;3.35;;
75236;SDS011;63826;48.100;-1.670;2023-02-12T10:49:05;7.75;;;3.30;;
75236;SDS011;63826;48.100;-1.670;2023-02-12T10:51:42;6.47;;;3.03;;
75236;SDS011;63826;48.100;-1.670;2023-02-12T10:56:57;6.47;;;3.00;;
75236;SDS011;63826;48.100;-1.670;2023-02-12T10:59:23;7.10;;;3.20;;
75236;SDS011;63826;48.100;-1.670;2023-02-12T11:01:50;7.05;;;3.28;;
75236;SDS011;63826;48.100;-1.670;2023-02-12T11:09:28;7.30;;;3.43;;
75236;SDS011;63826;48.100;-1.670;2023-02-12T11:11:54;6.90;;;3.10;;
75236;SDS011;63826;48.100;-1.670;2023-02-12T11:14:20;6.85;;;3.13;;
75236;SDS011;63826;48.100;-1.670;2023-02-12T11:19:23;6.65;;;3.15;;
75236;SDS011;63826;48.100;-1.670;2023-02-12T11:21:50;7.63;;;3.50;;
75236;SDS011;63826;48.100;-1.670;2023-02-12T11:24:20;7.97;;;2.97;;
75236;SDS011;63826;48.100;-1.670;2023-02-12T11:26:46;9.93;;;3.90;;
75236;SDS011;63826;48.100;-1.670;2023-02-12T11:29:16;7.78;;;3.60;;
75236;SDS011;63826;48.100;-1.670;2023-02-12T11:31:43;10.00;;;4.15;;
75236;SDS011;63826;48.100;-1.670;2023-02-12T11:34:23;8.17;;;3.47;;
75236;SDS011;63826;48.100;-1.670;2023-02-12T11:36:53;14.30;;;3.30;;
75236;SDS011;63826;48.100;-1.670;2023-02-12T11:41:55;10.43;;;3.22;;
75236;SDS011;63826;48.100;-1.670;2023-02-12T11:46:59;14.07;;;7.17;;
75236;SDS011;63826;48.100;-1.670;2023-02-12T11:49:31;11.50;;;5.95;;
75236;SDS011;63826;48.100;-1.670;2023-02-12T11:51:58;12.23;;;5.53;;
75236;SDS011;63826;48.100;-1.670;2023-02-12T11:54:26;14.70;;;7.38;;
75236;SDS011;63826;48.100;-1.670;2023-02-12T11:56:53;15.25;;;7.78;;
75236;SDS011;63826;48.100;-1.670;2023-02-12T11:59:31;13.73;;;7.80;;
75236;SDS011;63826;48.100;-1.670;2023-02-12T12:01:59;14.45;;;7.20;;
75236;SDS011;63826;48.100;-1.670;2023-02-12T12:04:26;13.05;;;6.70;;
75236;SDS011;63826;48.100;-1.670;2023-02-12T12:07:04;12.75;;;6.30;;
75236;SDS011;63826;48.100;-1.670;2023-02-12T12:09:44;13.65;;;5.93;;
75236;SDS011;63826;48.100;-1.670;2023-02-12T12:14:58;9.30;;;4.72;;
75236;SDS011;63826;48.100;-1.670;2023-02-12T12:17:44;12.13;;;4.70;;
75236;SDS011;63826;48.100;-1.670;2023-02-12T12:20:31;8.50;;;4.30;;
75236;SDS011;63826;48.100;-1.670;2023-02-12T12:23:05;13.35;;;4.43;;
75236;SDS011;63826;48.100;-1.670;2023-02-12T12:25:54;7.10;;;3.70;;
75236;SDS011;63826;48.100;-1.670;2023-02-12T12:33:39;7.25;;;3.05;;
75236;SDS011;63826;48.100;-1.670;2023-02-12T12:41:23;8.38;;;3.30;;
75236;SDS011;63826;48.100;-1.670;2023-02-12T12:59:54;6.13;;;2.83;;
75236;SDS011;63826;48.100;-1.670;2023-02-12T13:07:50;5.78;;;2.70;;
75236;SDS011;63826;48.100;-1.670;2023-02-12T13:23:45;6.63;;;2.70;;
75236;SDS011;63826;48.100;-1.670;2023-02-12T13:28:49;6.45;;;2.70;;
75236;SDS011;63826;48.100;-1.670;2023-02-12T13:31:18;7.35;;;2.72;;
75236;SDS011;63826;48.100;-1.670;2023-02-12T13:33:54;6.38;;;2.67;;
75236;SDS011;63826;48.100;-1.670;2023-02-12T13:36:22;5.60;;;2.80;;
75236;SDS011;63826;48.100;-1.670;2023-02-12T13:38:55;6.47;;;2.80;;
75236;SDS011;63826;48.100;-1.670;2023-02-12T13:41:23;5.57;;;2.60;;
75236;SDS011;63826;48.100;-1.670;2023-02-12T13:46:48;5.68;;;2.70;;
75236;SDS011;63826;48.100;-1.670;2023-02-12T13:52:10;7.53;;;2.60;;
75236;SDS011;63826;48.100;-1.670;2023-02-12T13:57:07;5.47;;;2.65;;
75236;SDS011;63826;48.100;-1.670;2023-02-12T14:02:00;6.65;;;2.80;;
75236;SDS011;63826;48.100;-1.670;2023-02-12T14:06:54;7.13;;;2.77;;
75236;SDS011;63826;48.100;-1.670;2023-02-12T14:09:23;6.10;;;2.42;;
75236;SDS011;63826;48.100;-1.670;2023-02-12T14:11:53;5.22;;;2.35;;
75236;SDS011;63826;48.100;-1.670;2023-02-12T14:14:27;5.75;;;2.33;;
75236;SDS011;63826;48.100;-1.670;2023-02-12T14:16:54;5.88;;;2.65;;
75236;SDS011;63826;48.100;-1.670;2023-02-12T14:22:10;5.57;;;2.30;;
75236;SDS011;63826;48.100;-1.670;2023-02-12T14:29:59;5.28;;;2.40;;
75236;SDS011;63826;48.100;-1.670;2023-02-12T14:40:38;5.97;;;2.55;;
75236;SDS011;63826;48.100;-1.670;2023-02-12T14:51:22;4.57;;;1.98;;
75236;SDS011;63826;48.100;-1.670;2023-02-12T14:53:53;5.60;;;2.22;;
75236;SDS011;63826;48.100;-1.670;2023-02-12T14:56:20;5.03;;;2.25;;
75236;SDS011;63826;48.100;-1.670;2023-02-12T14:58:47;5.30;;;2.25;;
75236;SDS011;63826;48.100;-1.670;2023-02-12T15:01:14;5.45;;;2.20;;
75236;SDS011;63826;48.100;-1.670;2023-02-12T15:03:41;4.63;;;2.00;;
75236;SDS011;63826;48.100;-1.670;2023-02-12T15:06:11;5.95;;;2.22;;
75236;SDS011;63826;48.100;-1.670;2023-02-12T15:08:47;5.05;;;2.00;;
75236;SDS011;63826;48.100;-1.670;2023-02-12T15:14:03;4.65;;;2.08;;
75236;SDS011;63826;48.100;-1.670;2023-02-12T15:16:32;4.97;;;2.08;;
75236;SDS011;63826;48.100;-1.670;2023-02-12T15:21:44;4.68;;;1.90;;
75236;SDS011;63826;48.100;-1.670;2023-02-12T15:24:11;5.30;;;1.95;;
75236;SDS011;63826;48.100;-1.670;2023-02-12T15:29:12;4.22;;;2.10;;
75236;SDS011;63826;48.100;-1.670;2023-02-12T15:31:41;4.15;;;1.80;;
75236;SDS011;63826;48.100;-1.670;2023-02-12T15:34:12;5.40;;;2.25;;
75236;SDS011;63826;48.100;-1.670;2023-02-12T15:36:43;4.00;;;1.63;;
75236;SDS011;63826;48.100;-1.670;2023-02-12T15:39:13;5.07;;;1.95;;
75236;SDS011;63826;48.100;-1.670;2023-02-12T15:41:41;3.88;;;1.75;;
75236;SDS011;63826;48.100;-1.670;2023-02-12T15:46:52;5.32;;;1.85;;
75236;SDS011;63826;48.100;-1.670;2023-02-12T15:49:19;4.93;;;2.00;;
75236;SDS011;63826;48.100;-1.670;2023-02-12T15:51:48;4.35;;;2.00;;
75236;SDS011;63826;48.100;-1.670;2023-02-12T15:54:14;4.45;;;1.98;;
75236;SDS011;63826;48.100;-1.670;2023-02-12T15:56:43;4.30;;;1.90;;
75236;SDS011;63826;48.100;-1.670;2023-02-12T15:59:17;4.30;;;1.70;;
75236;SDS011;63826;48.100;-1.670;2023-02-12T16:01:50;3.90;;;1.70;;
75236;SDS011;63826;48.100;-1.670;2023-02-12T16:04:17;3.70;;;1.80;;
75236;SDS011;63826;48.100;-1.670;2023-02-12T16:06:43;3.80;;;1.70;;
75236;SDS011;63826;48.100;-1.670;2023-02-12T16:09:16;4.47;;;1.85;;
75236;SDS011;63826;48.100;-1.670;2023-02-12T16:11:44;4.18;;;1.60;;
75236;SDS011;63826;48.100;-1.670;2023-02-12T16:14:18;4.28;;;1.73;;
75236;SDS011;63826;48.100;-1.670;2023-02-12T16:16:46;4.20;;;1.70;;
75236;SDS011;63826;48.100;-1.670;2023-02-12T16:19:27;2.85;;;1.45;;
75236;SDS011;63826;48.100;-1.670;2023-02-12T16:22:00;3.60;;;1.60;;
75236;SDS011;63826;48.100;-1.670;2023-02-12T16:24:31;3.88;;;1.80;;
75236;SDS011;63826;48.100;-1.670;2023-02-12T16:27:01;4.10;;;1.80;;
75236;SDS011;63826;48.100;-1.670;2023-02-12T16:29:28;4.10;;;1.58;;
75236;SDS011;63826;48.100;-1.670;2023-02-12T16:32:00;4.15;;;1.75;;
75236;SDS011;63826;48.100;-1.670;2023-02-12T16:34:30;4.20;;;1.70;;
75236;SDS011;63826;48.100;-1.670;2023-02-12T16:36:58;4.57;;;1.77;;
75236;SDS011;63826;48.100;-1.670;2023-02-12T16:40:05;4.05;;;1.70;;
75236;SDS011;63826;48.100;-1.670;2023-02-12T16:42:16;4.47;;;1.75;;
75236;SDS011;63826;48.100;-1.670;2023-02-12T16:44:44;4.57;;;1.70;;
75236;SDS011;63826;48.100;-1.670;2023-02-12T16:47:17;4.68;;;1.70;;
75236;SDS011;63826;48.100;-1.670;2023-02-12T16:49:51;5.03;;;2.08;;
75236;SDS011;63826;48.100;-1.670;2023-02-12T16:54:56;3.85;;;1.70;;
75236;SDS011;63826;48.100;-1.670;2023-02-12T16:57:22;3.50;;;1.60;;
75236;SDS011;63826;48.100;-1.670;2023-02-12T16:59:48;4.10;;;1.77;;
75236;SDS011;63826;48.100;-1.670;2023-02-12T17:02:15;4.60;;;1.70;;
75236;SDS011;63826;48.100;-1.670;2023-02-12T17:04:41;5.15;;;1.70;;
75236;SDS011;63826;48.100;-1.670;2023-02-12T17:09:42;5.22;;;2.00;;
75236;SDS011;63826;48.100;-1.670;2023-02-12T17:12:08;4.40;;;1.90;;
75236;SDS011;63826;48.100;-1.670;2023-02-12T17:14:34;4.32;;;2.05;;
75236;SDS011;63826;48.100;-1.670;2023-02-12T17:17:00;4.87;;;1.90;;
75236;SDS011;63826;48.100;-1.670;2023-02-12T17:19:26;4.47;;;2.28;;
75236;SDS011;63826;48.100;-1.670;2023-02-12T17:21:52;5.38;;;2.38;;
75236;SDS011;63826;48.100;-1.670;2023-02-12T17:24:22;5.15;;;2.30;;
75236;SDS011;63826;48.100;-1.670;2023-02-12T17:26:49;5.10;;;2.38;;
75236;SDS011;63826;48.100;-1.670;2023-02-12T17:29:16;6.40;;;2.95;;
75236;SDS011;63826;48.100;-1.670;2023-02-12T17:31:42;5.93;;;3.10;;
75236;SDS011;63826;48.100;-1.670;2023-02-12T17:34:08;7.47;;;3.90;;
75236;SDS011;63826;48.100;-1.670;2023-02-12T17:36:34;7.28;;;3.75;;